Time;durP1;ratioP1;P1;durP2;ratioP2;P2;SDS_P1;SDS_P2;PMS_P1;PMS_P2;Temp;Humidity;BMP_temperature;BMP_pressure;BME280_temperature;BME280_humidity;BME280_pressure;Samples;Min_cycle;Max_cycle;Signal;HPM_P1;HPM_P2
2021/07/11 00:01:23;;;;;;;;;;;;;;;28.99;49.51;100063.50;5050453;28;19982;-58
2021/07/11 00:03:49;;;;;;;;;;;;;;;28.98;49.42;100067.19;5033986;28;20356;-58
2021/07/11 00:06:15;;;;;;;;;;;;;;;28.95;49.25;100063.88;5052122;28;19925;-58
2021/07/11 00:08:41;;;;;;;;;;;;;;;28.93;49.45;100068.59;5052002;28;20291;-59
2021/07/11 00:11:07;;;;;;;;;;;;;;;28.91;49.61;100059.94;5051776;28;19924;-59
2021/07/11 00:13:33;;;;;;;;;;;;;;;28.89;49.74;100061.97;5051818;28;19924;-57
2021/07/11 00:15:59;;;;;;;;;;;;;;;28.89;49.87;100061.16;5051808;28;20474;-57
2021/07/11 00:18:25;;;;;;;;;;;;;;;28.86;49.46;100061.56;5051834;28;20023;-58
2021/07/11 00:20:51;;;;;;;;;;;;;;;28.86;49.89;100062.34;5051577;28;20026;-58
2021/07/11 00:23:16;;;;;;;;;;;;;;;28.83;49.82;100068.13;5033819;28;19987;-58
2021/07/11 00:25:42;;;;;;;;;;;;;;;28.83;49.63;100062.75;5051658;28;20301;-58
2021/07/11 00:28:08;;;;;;;;;;;;;;;28.81;49.69;100070.19;5051445;28;20519;-58
2021/07/11 00:30:33;;;;;;;;;;;;;;;28.80;49.82;100065.00;5051569;28;19921;-58
2021/07/11 00:32:59;;;;;;;;;;;;;;;28.79;49.80;100074.13;5051336;28;20402;-57
2021/07/11 00:35:25;;;;;;;;;;;;;;;28.77;49.66;100079.66;5051546;28;20019;-59
2021/07/11 00:37:51;;;;;;;;;;;;;;;28.75;50.13;100070.97;5050798;28;19932;-58
2021/07/11 00:40:18;;;;;;;;;;;;;;;28.75;50.05;100079.03;5051453;28;19924;-58
2021/07/11 00:42:44;;;;;;;;;;;;;;;28.74;49.96;100077.38;5033463;28;20398;-58
2021/07/11 00:45:11;;;;;;;;;;;;;;;28.72;49.79;100074.06;5033463;28;19948;-57
2021/07/11 00:47:38;;;;;;;;;;;;;;;28.72;49.90;100079.44;5051321;28;20426;-58
2021/07/11 00:50:08;;;;;;;;;;;;;;;28.72;50.10;100078.59;5033447;28;19928;-58
2021/07/11 00:52:34;;;;;;;;;;;;;;;28.70;50.26;100081.47;5033555;28;19924;-57
2021/07/11 00:55:00;;;;;;;;;;;;;;;28.70;49.89;100080.63;5033126;28;19976;-56
2021/07/11 00:57:28;;;;;;;;;;;;;;;28.69;49.81;100079.84;5033294;28;20378;-58
2021/07/11 00:59:54;;;;;;;;;;;;;;;28.69;50.20;100081.69;5050601;28;19967;-57
2021/07/11 01:02:24;;;;;;;;;;;;;;;28.69;49.95;100079.00;5033405;28;19931;-57
2021/07/11 01:04:52;;;;;;;;;;;;;;;28.67;49.88;100081.88;5050681;28;19927;-58
2021/07/11 01:07:24;;;;;;;;;;;;;;;28.67;50.10;100081.88;5033185;28;19932;-57
2021/07/11 01:09:52;;;;;;;;;;;;;;;28.66;50.15;100077.53;5032787;28;19928;-56
2021/07/11 01:12:25;;;;;;;;;;;;;;;28.66;50.05;100080.22;5016774;28;19925;-58
2021/07/11 01:14:51;;;;;;;;;;;;;;;28.66;50.09;100079.38;5032639;28;19964;-58
2021/07/11 01:17:20;;;;;;;;;;;;;;;28.66;50.00;100090.97;5000976;28;19925;-57
2021/07/11 01:20:19;;;;;;;;;;;;;;;28.67;49.91;100092.63;5032813;28;19994;-58
2021/07/11 01:22:49;;;;;;;;;;;;;;;28.67;50.01;100081.88;5000597;28;19924;-58
2021/07/11 01:25:34;;;;;;;;;;;;;;;28.67;49.91;100089.94;5000282;28;20011;-57
2021/07/11 01:28:01;;;;;;;;;;;;;;;28.68;49.88;100093.44;5050257;28;20011;-59
2021/07/11 01:30:26;;;;;;;;;;;;;;;28.68;50.09;100088.91;5032756;28;19963;-57
2021/07/11 01:32:52;;;;;;;;;;;;;;;28.76;49.85;100096.00;5032521;28;19925;-58
2021/07/11 01:35:19;;;;;;;;;;;;;;;28.89;49.62;100093.41;5016403;28;20417;-58
2021/07/11 01:37:45;;;;;;;;;;;;;;;28.90;49.52;100098.59;5032540;28;19925;-58
2021/07/11 01:40:11;;;;;;;;;;;;;;;28.88;49.45;100095.28;5049937;28;19924;-58
2021/07/11 01:42:37;;;;;;;;;;;;;;;28.89;49.45;100104.97;5050369;28;19959;-57
2021/07/11 01:45:05;;;;;;;;;;;;;;;28.89;49.44;100102.28;5032295;28;20020;-57
2021/07/11 01:47:31;;;;;;;;;;;;;;;28.88;49.65;100092.59;5032125;28;19971;-58
2021/07/11 01:49:59;;;;;;;;;;;;;;;28.90;49.55;100103.13;5032198;28;19925;-58
2021/07/11 01:52:26;;;;;;;;;;;;;;;28.90;49.34;100101.28;5032463;28;19931;-57
2021/07/11 01:54:52;;;;;;;;;;;;;;;28.93;49.36;100103.56;5015479;28;19928;-58
2021/07/11 01:57:18;;;;;;;;;;;;;;;28.93;49.24;100102.72;5015979;28;19936;-57
2021/07/11 01:59:49;;;;;;;;;;;;;;;28.90;49.46;100105.81;5024048;28;20296;-57
2021/07/11 02:02:42;;;;;;;;;;;;;;;28.86;49.29;100100.00;5070242;28;19925;-58
2021/07/11 02:05:15;;;;;;;;;;;;;;;28.84;49.62;100099.38;5069924;28;19924;-57
2021/07/11 02:07:41;;;;;;;;;;;;;;;28.82;49.67;100100.59;5052093;28;19947;-58
2021/07/11 02:10:08;;;;;;;;;;;;;;;28.81;49.47;100098.94;5069766;28;19935;-57
2021/07/11 02:12:34;;;;;;;;;;;;;;;28.79;49.67;100095.63;5035496;28;20308;-60
2021/07/11 02:15:05;;;;;;;;;;;;;;;28.78;49.70;100104.69;5051814;28;19924;-58
2021/07/11 02:17:32;;;;;;;;;;;;;;;28.80;49.47;100102.63;5069892;28;19932;-58
2021/07/11 02:20:03;;;;;;;;;;;;;;;28.80;49.32;100098.09;5035758;28;20019;-57
2021/07/11 02:22:35;;;;;;;;;;;;;;;28.81;49.17;100099.75;5052021;28;20023;-58
2021/07/11 02:25:02;;;;;;;;;;;;;;;28.82;49.31;100098.75;5051988;28;20348;-57
2021/07/11 02:27:31;;;;;;;;;;;;;;;28.86;49.27;100101.88;5035778;28;19925;-57
2021/07/11 02:29:58;;;;;;;;;;;;;;;28.87;49.03;100104.34;5051844;28;20014;-59
2021/07/11 02:32:25;;;;;;;;;;;;;;;28.89;48.98;100107.66;5069942;28;19931;-59
2021/07/11 02:34:51;;;;;;;;;;;;;;;28.92;48.87;100103.78;5069676;28;19932;-57
2021/07/11 02:37:18;;;;;;;;;;;;;;;28.92;48.96;100101.94;5051942;28;19964;-58
2021/07/11 02:39:44;;;;;;;;;;;;;;;28.92;48.74;100101.94;5069857;28;19931;-57
2021/07/11 02:42:13;;;;;;;;;;;;;;;28.93;48.80;100100.03;5069644;28;20403;-57
2021/07/11 02:44:42;;;;;;;;;;;;;;;28.95;48.61;100100.69;5051685;28;20283;-57
2021/07/11 02:47:11;;;;;;;;;;;;;;;28.98;48.64;100105.69;5069312;28;19947;-58
2021/07/11 02:49:50;;;;;;;;;;;;;;;29.00;48.57;100100.91;5051657;28;19932;-58
2021/07/11 02:52:17;;;;;;;;;;;;;;;29.07;48.07;100103.66;5051594;28;19928;-58
2021/07/11 02:54:52;;;;;;;;;;;;;;;29.14;48.10;100099.16;5035323;28;20058;-57
2021/07/11 02:57:19;;;;;;;;;;;;;;;29.24;47.66;100095.09;5069628;28;20042;-58
2021/07/11 02:59:47;;;;;;;;;;;;;;;29.41;47.16;100107.22;5052750;28;20003;-58
2021/07/11 03:02:13;;;;;;;;;;;;;;;29.49;46.97;100111.59;5073089;28;20153;-58
2021/07/11 03:04:40;;;;;;;;;;;;;;;29.55;46.63;100108.09;5073157;28;19927;-58
2021/07/11 03:07:07;;;;;;;;;;;;;;;29.61;46.60;100107.31;5055010;28;19924;-58
2021/07/11 03:09:35;;;;;;;;;;;;;;;29.68;46.48;100108.13;5055062;28;19947;-57
2021/07/11 03:12:01;;;;;;;;;;;;;;;29.78;46.21;100107.75;5054983;28;19933;-59
2021/07/11 03:14:28;;;;;;;;;;;;;;;30.28;45.11;100115.38;5038768;28;19928;-57
2021/07/11 03:16:54;;;;;;;;;;;;;;;30.65;44.63;100108.63;5072785;28;20453;-57
2021/07/11 03:19:23;;;;;;;;;;;;;;;30.82;44.26;100109.03;5054880;28;19924;-57
2021/07/11 03:21:49;;;;;;;;;;;;;;;30.72;44.12;100111.31;5038358;28;19931;-57
2021/07/11 03:24:21;;;;;;;;;;;;;;;30.70;44.46;100106.09;5054647;28;19924;-57
2021/07/11 03:26:47;;;;;;;;;;;;;;;30.72;44.38;100105.91;5054911;28;20022;-57
2021/07/11 03:29:26;;;;;;;;;;;;;;;30.78;44.11;100105.91;5054588;28;19976;-57
2021/07/11 03:31:55;;;;;;;;;;;;;;;30.95;43.76;100101.78;5072668;28;19928;-57
2021/07/11 03:34:22;;;;;;;;;;;;;;;31.02;43.53;100107.16;5072652;28;20427;-58
2021/07/11 03:36:48;;;;;;;;;;;;;;;31.01;43.50;100110.91;5054518;28;19947;-58
2021/07/11 03:39:15;;;;;;;;;;;;;;;31.02;43.28;100107.16;5054329;28;20547;-58
2021/07/11 03:41:41;;;;;;;;;;;;;;;31.44;42.67;100111.22;5038133;28;20014;-58
2021/07/11 03:44:11;;;;;;;;;;;;;;;31.92;41.30;100115.19;5037421;28;20301;-58
2021/07/11 03:46:37;;;;;;;;;;;;;;;31.94;41.31;100102.25;5054353;28;19959;-56
2021/07/11 03:49:04;;;;;;;;;;;;;;;32.03;40.94;100111.78;5054244;28;19924;-57
2021/07/11 03:51:31;;;;;;;;;;;;;;;32.64;40.15;100100.38;5054486;28;19924;-57
2021/07/11 03:53:56;;;;;;;;;;;;;;;33.26;38.51;100101.25;5072159;28;19932;-56
2021/07/11 03:56:27;;;;;;;;;;;;;;;33.90;37.33;100098.81;5072273;28;19931;-57
2021/07/11 03:58:53;;;;;;;;;;;;;;;34.37;36.33;100105.25;5054362;28;19920;-57
2021/07/11 04:01:20;;;;;;;;;;;;;;;35.07;35.11;100099.06;5051864;28;19931;-57
2021/07/11 04:03:45;;;;;;;;;;;;;;;35.64;33.96;100100.88;5034223;28;19967;-56
2021/07/11 04:06:12;;;;;;;;;;;;;;;36.09;33.22;100092.81;5033908;28;20417;-58
2021/07/11 04:08:38;;;;;;;;;;;;;;;36.47;32.38;100094.81;5051829;28;19932;-57
2021/07/11 04:11:04;;;;;;;;;;;;;;;36.72;31.61;100097.97;5033235;28;20317;-57
2021/07/11 04:13:30;;;;;;;;;;;;;;;36.95;31.21;100102.41;5051755;28;19924;-57
2021/07/11 04:15:57;;;;;;;;;;;;;;;37.11;30.89;100100.78;5051809;28;20306;-57
2021/07/11 04:18:23;;;;;;;;;;;;;;;36.40;32.01;100096.88;5033911;28;19924;-57
2021/07/11 04:20:49;;;;;;;;;;;;;;;36.13;32.15;100109.47;5033747;28;19932;-57
2021/07/11 04:23:15;;;;;;;;;;;;;;;36.21;32.17;100101.72;5033740;28;20417;-58
2021/07/11 04:25:41;;;;;;;;;;;;;;;36.91;30.60;100102.06;5051575;28;19925;-58
2021/07/11 04:28:08;;;;;;;;;;;;;;;37.37;29.40;100100.84;5033736;28;19929;-57
2021/07/11 04:30:34;;;;;;;;;;;;;;;37.69;29.05;100102.91;5051516;28;19920;-57
2021/07/11 04:33:00;;;;;;;;;;;;;;;37.97;28.24;100100.78;5051228;28;20282;-58
2021/07/11 04:35:25;;;;;;;;;;;;;;;38.18;27.78;100107.28;5033538;28;19924;-59
2021/07/11 04:37:51;;;;;;;;;;;;;;;38.34;28.07;100108.22;5051271;28;19927;-59
2021/07/11 04:40:17;;;;;;;;;;;;;;;38.47;27.62;100114.13;5050930;28;19931;-58
2021/07/11 04:42:44;;;;;;;;;;;;;;;38.61;27.38;100109.03;5051317;28;19924;-58
2021/07/11 04:45:10;;;;;;;;;;;;;;;38.66;27.66;100089.97;5050804;28;20023;-57
2021/07/11 04:47:36;;;;;;;;;;;;;;;38.91;27.04;100113.91;5051183;28;20023;-58
2021/07/11 04:50:03;;;;;;;;;;;;;;;39.04;26.82;100116.16;5050829;28;19924;-58
2021/07/11 04:52:31;;;;;;;;;;;;;;;39.21;26.92;100110.53;5051219;28;19925;-58
2021/07/11 04:54:56;;;;;;;;;;;;;;;39.41;26.70;100108.75;5050902;28;19966;-57
2021/07/11 04:57:23;;;;;;;;;;;;;;;39.62;26.11;100104.19;5051006;28;19968;-57
2021/07/11 04:59:48;;;;;;;;;;;;;;;39.83;25.69;100118.78;5058215;28;20222;-58
2021/07/11 05:02:14;;;;;;;;;;;;;;;40.01;25.49;100113.63;5070721;28;20403;-58
2021/07/11 05:04:40;;;;;;;;;;;;;;;40.29;24.92;100117.78;5052898;28;19921;-59
2021/07/11 05:07:06;;;;;;;;;;;;;;;40.63;24.61;100118.09;5070523;28;20304;-59
2021/07/11 05:09:32;;;;;;;;;;;;;;;40.99;24.00;100117.00;5052795;28;19930;-58
2021/07/11 05:11:58;;;;;;;;;;;;;;;41.94;22.95;100115.00;5052928;28;19924;-58
2021/07/11 05:14:24;;;;;;;;;;;;;;;43.13;21.65;100123.66;5052672;28;19924;-59
2021/07/11 05:16:49;;;;;;;;;;;;;;;44.00;20.70;100115.97;5070753;28;19951;-57
2021/07/11 05:19:15;;;;;;;;;;;;;;;44.48;20.11;100119.34;5070343;28;19924;-58
2021/07/11 05:21:41;;;;;;;;;;;;;;;44.81;19.52;100120.19;5070574;28;19928;-58
2021/07/11 05:24:07;;;;;;;;;;;;;;;44.96;19.55;100117.97;5069319;28;19925;-59
2021/07/11 05:26:33;;;;;;;;;;;;;;;45.22;19.12;100114.75;5070394;28;19971;-58
2021/07/11 05:28:59;;;;;;;;;;;;;;;45.37;18.97;100111.69;5070258;28;20499;-58
2021/07/11 05:31:25;;;;;;;;;;;;;;;45.51;18.83;100112.50;5070123;28;20074;-58
2021/07/11 05:33:51;;;;;;;;;;;;;;;45.54;18.56;100111.88;5070313;28;19920;-58
2021/07/11 05:36:16;;;;;;;;;;;;;;;45.53;18.52;100113.00;5069943;28;20381;-59
2021/07/11 05:38:42;;;;;;;;;;;;;;;45.48;18.41;100119.47;5070233;28;19927;-59
2021/07/11 05:41:09;;;;;;;;;;;;;;;45.42;18.31;100117.13;5069953;28;19924;-59
2021/07/11 05:43:35;;;;;;;;;;;;;;;45.27;18.71;100128.41;5070256;28;19927;-59
2021/07/11 05:46:01;;;;;;;;;;;;;;;45.22;18.76;100121.06;5070092;28;19924;-58
2021/07/11 05:48:27;;;;;;;;;;;;;;;45.08;18.43;100114.72;5069863;28;19924;-59
2021/07/11 05:50:52;;;;;;;;;;;;;;;44.79;18.73;100125.19;5070024;28;19928;-58
2021/07/11 05:53:18;;;;;;;;;;;;;;;44.50;18.81;100128.16;5069815;28;20404;-59
2021/07/11 05:55:44;;;;;;;;;;;;;;;44.26;19.45;100119.19;5069885;28;20019;-59
2021/07/11 05:58:09;;;;;;;;;;;;;;;43.97;19.47;100120.16;5069738;28;19924;-59
2021/07/11 06:00:35;;;;;;;;;;;;;;;43.70;19.31;100132.88;5069705;28;19924;-59
2021/07/11 06:03:01;;;;;;;;;;;;;;;43.14;20.28;100125.28;5052068;28;20027;-59
2021/07/11 06:05:27;;;;;;;;;;;;;;;42.44;20.81;100135.00;5051604;28;20007;-59
2021/07/11 06:07:52;;;;;;;;;;;;;;;41.74;21.57;100122.50;5069912;28;19985;-58
2021/07/11 06:10:18;;;;;;;;;;;;;;;41.08;22.34;100126.28;5069642;28;19925;-59
2021/07/11 06:12:44;;;;;;;;;;;;;;;40.61;22.34;100123.03;5070020;28;19930;-59
2021/07/11 06:15:10;;;;;;;;;;;;;;;40.27;22.72;100121.91;5069486;28;19993;-59
2021/07/11 06:17:36;;;;;;;;;;;;;;;39.96;22.79;100113.59;5069899;28;19924;-58
2021/07/11 06:20:06;;;;;;;;;;;;;;;39.67;23.10;100112.41;5069742;28;19931;-59
2021/07/11 06:22:32;;;;;;;;;;;;;;;39.44;23.67;100121.06;5051770;28;19947;-58
2021/07/11 06:24:57;;;;;;;;;;;;;;;39.19;24.00;100120.91;5069770;28;19932;-59
2021/07/11 06:27:23;;;;;;;;;;;;;;;38.96;24.30;100113.94;5069355;28;20023;-59
2021/07/11 06:29:49;;;;;;;;;;;;;;;38.84;23.95;100116.06;5069519;28;19966;-58
2021/07/11 06:32:15;;;;;;;;;;;;;;;38.74;24.38;100122.25;5069617;28;19928;-59
2021/07/11 06:34:41;;;;;;;;;;;;;;;38.64;24.56;100119.44;5070961;28;19924;-59
2021/07/11 06:37:06;;;;;;;;;;;;;;;38.67;24.27;100116.19;5073447;28;20368;-59
2021/07/11 06:39:32;;;;;;;;;;;;;;;38.42;24.66;100116.78;5073500;28;19931;-58
2021/07/11 06:41:58;;;;;;;;;;;;;;;38.24;24.57;100119.88;5073519;28;19924;-57
2021/07/11 06:44:24;;;;;;;;;;;;;;;38.01;24.03;100118.28;5073291;28;20450;-59
2021/07/11 06:46:50;;;;;;;;;;;;;;;37.81;24.38;100120.75;5073357;28;19924;-59
2021/07/11 06:49:16;;;;;;;;;;;;;;;37.68;24.17;100106.69;5073097;28;19924;-58
2021/07/11 06:51:41;;;;;;;;;;;;;;;37.50;24.24;100110.59;5073220;28;20278;-58
2021/07/11 06:54:07;;;;;;;;;;;;;;;37.43;24.43;100109.91;5073133;28;20300;-58
2021/07/11 06:56:33;;;;;;;;;;;;;;;37.42;24.15;100111.00;5073335;28;20042;-59
2021/07/11 06:59:00;;;;;;;;;;;;;;;37.46;24.27;100110.28;5055459;28;19943;-59
2021/07/11 07:01:26;;;;;;;;;;;;;;;37.45;24.52;100121.38;5072851;28;20382;-59
2021/07/11 07:03:52;;;;;;;;;;;;;;;37.39;24.49;100112.31;5073141;28;19932;-58
2021/07/11 07:06:18;;;;;;;;;;;;;;;37.29;24.83;100111.34;5072916;28;19933;-58
2021/07/11 07:08:43;;;;;;;;;;;;;;;37.28;24.68;100110.53;5073132;28;19931;-60
2021/07/11 07:11:09;;;;;;;;;;;;;;;37.32;24.78;100114.41;5054912;28;19974;-59
2021/07/11 07:13:35;;;;;;;;;;;;;;;37.23;24.82;100110.47;5072944;28;19932;-58
2021/07/11 07:16:01;;;;;;;;;;;;;;;37.17;25.05;100107.94;5072739;28;19925;-58
2021/07/11 07:18:26;;;;;;;;;;;;;;;37.13;25.06;100104.06;5054913;28;19928;-58
2021/07/11 07:20:52;;;;;;;;;;;;;;;37.18;25.06;100115.00;5072786;28;19924;-59
2021/07/11 07:23:18;;;;;;;;;;;;;;;37.14;25.10;100105.72;5072640;28;20313;-58
2021/07/11 07:25:43;;;;;;;;;;;;;;;37.08;25.24;100101.25;5072685;28;19924;-60
2021/07/11 07:28:11;;;;;;;;;;;;;;;37.10;25.10;100104.56;5072582;28;20409;-61
2021/07/11 07:30:37;;;;;;;;;;;;;;;37.00;25.45;100099.81;5054754;28;20019;-60
2021/07/11 07:33:02;;;;;;;;;;;;;;;36.90;25.41;100100.44;5072811;28;20024;-58
2021/07/11 07:35:28;;;;;;;;;;;;;;;36.82;25.34;100100.03;5054444;28;19931;-59
2021/07/11 07:37:54;;;;;;;;;;;;;;;36.81;25.47;100107.41;5072341;28;19920;-59
2021/07/11 07:40:20;;;;;;;;;;;;;;;36.77;25.53;100108.13;5072227;28;20014;-60
2021/07/11 07:42:46;;;;;;;;;;;;;;;36.73;25.55;100110.53;5072437;28;19927;-60
2021/07/11 07:45:12;;;;;;;;;;;;;;;36.63;25.59;100099.47;5071998;28;19931;-59
2021/07/11 07:47:38;;;;;;;;;;;;;;;36.45;25.66;100103.22;5071441;28;20217;-60
2021/07/11 07:50:05;;;;;;;;;;;;;;;36.32;26.03;100103.53;5072327;28;19925;-59
2021/07/11 07:52:31;;;;;;;;;;;;;;;36.17;26.16;100105.19;5072084;28;19924;-58
2021/07/11 07:54:56;;;;;;;;;;;;;;;36.09;26.25;100097.44;5072124;28;19925;-59
2021/07/11 07:57:22;;;;;;;;;;;;;;;35.99;26.33;100109.75;5071945;28;19982;-59
2021/07/11 07:59:48;;;;;;;;;;;;;;;35.83;26.41;100110.50;5071899;28;19928;-59
2021/07/11 08:02:13;;;;;;;;;;;;;;;35.69;26.41;100098.28;5071865;28;19959;-59
2021/07/11 08:04:39;;;;;;;;;;;;;;;35.55;26.82;100096.88;5072035;28;19978;-60
2021/07/11 08:07:05;;;;;;;;;;;;;;;35.50;26.81;100091.34;5072025;28;19943;-60
2021/07/11 08:09:31;;;;;;;;;;;;;;;35.42;27.03;100105.28;5071676;28;19925;-58
2021/07/11 08:11:58;;;;;;;;;;;;;;;35.33;27.29;100098.59;5071937;28;19925;-59
2021/07/11 08:14:23;;;;;;;;;;;;;;;35.25;27.34;100098.94;5071662;28;19970;-59
2021/07/11 08:16:49;;;;;;;;;;;;;;;35.19;27.25;100102.63;5071803;28;19924;-59
2021/07/11 08:19:15;;;;;;;;;;;;;;;35.12;27.39;100096.47;5053726;28;20315;-58
2021/07/11 08:21:41;;;;;;;;;;;;;;;35.08;27.18;100106.16;5071715;28;19932;-60
2021/07/11 08:24:06;;;;;;;;;;;;;;;35.00;27.72;100120.91;5071756;28;19928;-60
2021/07/11 08:26:32;;;;;;;;;;;;;;;34.88;27.51;100106.50;5053636;28;20479;-60
2021/07/11 08:28:58;;;;;;;;;;;;;;;34.83;27.37;100112.63;5071741;28;20449;-61
2021/07/11 08:31:24;;;;;;;;;;;;;;;34.74;27.73;100100.50;5053487;28;19930;-59
2021/07/11 08:33:50;;;;;;;;;;;;;;;34.67;27.47;100094.34;5053514;28;20038;-60
2021/07/11 08:36:16;;;;;;;;;;;;;;;34.66;27.73;100089.13;5071105;28;19924;-59
2021/07/11 08:38:41;;;;;;;;;;;;;;;34.59;27.72;100091.94;5071427;28;20297;-58
2021/07/11 08:41:07;;;;;;;;;;;;;;;34.53;28.17;100106.44;5071280;28;20401;-60
2021/07/11 08:43:33;;;;;;;;;;;;;;;34.43;27.98;100087.19;5071080;28;19924;-59
2021/07/11 08:45:59;;;;;;;;;;;;;;;34.38;28.46;100089.78;5036708;28;20394;-61
2021/07/11 08:48:25;;;;;;;;;;;;;;;34.30;28.53;100095.53;5036509;28;19925;-59
2021/07/11 08:50:51;;;;;;;;;;;;;;;34.24;28.82;100099.19;5071021;28;20401;-59
2021/07/11 08:53:17;;;;;;;;;;;;;;;34.20;28.85;100087.16;5070833;28;20022;-60
2021/07/11 08:55:42;;;;;;;;;;;;;;;34.19;28.73;100077.38;5070760;28;19946;-59
2021/07/11 08:58:08;;;;;;;;;;;;;;;34.16;29.06;100073.25;5070902;28;19986;-59
2021/07/11 09:00:36;;;;;;;;;;;;;;;34.17;29.04;100079.47;5070499;28;20423;-60
2021/07/11 09:03:02;;;;;;;;;;;;;;;34.21;28.68;100078.78;5053354;28;19928;-59
2021/07/11 09:05:28;;;;;;;;;;;;;;;34.18;28.80;100078.44;5052669;28;19924;-60
2021/07/11 09:08:01;;;;;;;;;;;;;;;34.13;29.05;100072.88;5071136;28;19932;-59
2021/07/11 09:10:34;;;;;;;;;;;;;;;34.07;28.75;100085.44;5071257;28;20109;-60
2021/07/11 09:13:01;;;;;;;;;;;;;;;34.08;28.86;100067.28;5070605;28;19931;-59
2021/07/11 09:15:31;;;;;;;;;;;;;;;34.05;28.97;100079.44;5070501;28;19931;-60
2021/07/11 09:17:57;;;;;;;;;;;;;;;34.00;28.83;100073.84;5062465;28;20406;-58
2021/07/11 09:20:22;;;;;;;;;;;;;;;33.98;29.16;100074.09;5070286;28;19925;-60
2021/07/11 09:22:55;;;;;;;;;;;;;;;33.74;29.66;100079.66;5033471;28;19932;-64
2021/07/11 09:35:41;;;;;;;6.38;4.93;;;;;;;32.83;29.74;100085.84;5058135;27;20401;-70
2021/07/11 09:38:27;;;;;;;5.07;4.65;;;;;;;32.07;30.50;100084.38;5028070;28;20115;-70
2021/07/11 09:40:53;;;;;;;8.40;5.68;;;;;;;31.94;33.40;100064.44;5022208;28;20037;-70
2021/07/11 09:43:19;;;;;;;0.22;0.22;;;;;;;32.08;31.89;100076.03;5026719;28;20498;-63
2021/07/11 09:45:45;;;;;;;0.20;0.20;;;;;;;32.24;30.97;100080.06;5042202;28;20048;-60
2021/07/11 09:48:13;;;;;;;0.00;0.00;;;;;;;32.30;31.23;100065.69;5045718;28;20041;-58
2021/07/11 09:50:40;;;;;;;0.20;0.20;;;;;;;32.20;31.39;100079.69;5046741;28;20304;-58
2021/07/11 09:53:06;;;;;;;0.20;0.20;;;;;;;32.12;31.40;100062.91;5046924;28;20044;-59
2021/07/11 09:55:34;;;;;;;0.05;0.05;;;;;;;31.96;31.35;100059.66;5046395;28;20049;-60
2021/07/11 09:58:08;;;;;;;0.00;0.00;;;;;;;31.99;31.04;100072.75;5043418;28;20045;-59
2021/07/11 10:00:38;;;;;;;0.10;0.10;;;;;;;32.15;30.89;100063.31;5043800;28;20457;-58
2021/07/11 10:03:12;;;;;;;0.20;0.20;;;;;;;32.37;31.05;100064.59;5045662;28;20060;-58
2021/07/11 10:05:39;;;;;;;0.20;0.20;;;;;;;32.43;30.31;100063.69;5043042;28;20043;-59
2021/07/11 10:08:05;;;;;;;0.10;0.10;;;;;;;32.41;29.95;100059.56;5045136;28;20043;-60
2021/07/11 10:10:32;;;;;;;0.10;0.10;;;;;;;32.30;30.41;100057.56;5044320;28;20048;-59
2021/07/11 10:12:59;;;;;;;0.00;0.00;;;;;;;32.40;31.05;100049.78;5043125;28;20068;-58
2021/07/11 10:15:27;;;;;;;0.00;0.00;;;;;;;32.43;30.39;100065.56;5043869;28;20045;-60
2021/07/11 10:18:12;;;;;;;0.10;0.10;;;;;;;32.37;30.52;100058.34;5044714;28;20064;-59
2021/07/11 10:20:39;;;;;;;0.10;0.10;;;;;;;32.31;30.12;100049.25;5046056;28;20041;-60
2021/07/11 10:23:06;;;;;;;0.00;0.00;;;;;;;32.27;31.19;100049.91;5046426;28;20137;-59
2021/07/11 10:25:32;;;;;;;0.63;0.25;;;;;;;32.20;31.33;100058.06;5046261;28;20041;-61
2021/07/11 10:28:14;;;;;;;0.03;0.03;;;;;;;32.08;31.18;100058.97;5046849;28;20073;-59
2021/07/11 10:30:46;;;;;;;0.13;0.13;;;;;;;32.01;30.95;100059.81;5045717;28;20041;-58
2021/07/11 10:33:14;;;;;;;0.00;0.00;;;;;;;32.10;30.84;100056.91;5060558;28;20172;-60
2021/07/11 10:36:00;;;;;;;0.00;0.00;;;;;;;32.15;30.67;100055.19;5046568;28;20146;-58
2021/07/11 10:38:34;;;;;;;0.55;0.50;;;;;;;32.34;30.38;100054.22;5045814;28;20037;-59
2021/07/11 10:41:14;;;;;;;0.00;0.00;;;;;;;32.25;30.11;100050.13;5045910;28;20045;-59
2021/07/11 10:43:42;;;;;;;0.10;0.10;;;;;;;32.28;30.11;100048.88;5061072;28;20049;-60
2021/07/11 10:46:08;;;;;;;0.20;0.20;;;;;;;32.41;30.13;100059.56;5037261;28;20116;-59
2021/07/11 10:48:34;;;;;;;0.10;0.10;;;;;;;32.53;30.08;100048.88;5048009;28;20133;-59
2021/07/11 10:51:02;;;;;;;0.10;0.10;;;;;;;32.64;30.19;100048.16;5048095;28;20034;-59
2021/07/11 10:53:39;;;;;;;0.08;0.08;;;;;;;32.59;29.77;100046.16;5032566;28;20124;-60
2021/07/11 10:56:17;;;;;;;0.00;0.00;;;;;;;32.27;29.96;100047.19;5015334;28;20073;-60
2021/07/11 10:58:46;;;;;;;0.00;0.00;;;;;;;32.24;30.17;100032.25;5032307;28;20111;-58
2021/07/11 11:01:17;;;;;;;0.85;0.85;;;;;;;32.21;30.16;100031.88;5047223;28;20060;-58
2021/07/11 11:03:52;;;;;;;0.10;0.10;;;;;;;32.36;30.06;100043.19;5047542;28;20068;-59
2021/07/11 11:06:20;;;;;;;0.30;0.30;;;;;;;32.48;29.65;100044.13;5047743;28;20041;-60
2021/07/11 11:08:47;;;;;;;0.17;0.17;;;;;;;32.41;30.11;100025.25;5031749;28;20044;-59
2021/07/11 11:11:13;;;;;;;0.20;0.20;;;;;;;32.23;30.14;100018.97;5030714;28;20044;-59
2021/07/11 11:13:39;;;;;;;0.10;0.10;;;;;;;32.45;30.18;100033.75;5031738;28;20426;-58
2021/07/11 11:16:20;;;;;;;0.10;0.10;;;;;;;32.47;30.23;100031.63;5031264;28;20125;-61
2021/07/11 11:18:51;;;;;;;0.00;0.00;;;;;;;32.47;30.38;100037.88;5031930;28;20076;-59
2021/07/11 11:21:24;;;;;;;0.25;0.25;;;;;;;32.57;30.21;100036.53;5047914;28;20045;-59
2021/07/11 11:23:56;;;;;;;0.10;0.03;;;;;;;32.33;29.28;100057.16;5015416;28;20041;-59
2021/07/11 11:26:30;;;;;;;0.60;0.32;;;;;;;32.27;30.50;100036.38;5032412;28;20037;-59
2021/07/11 11:28:59;;;;;;;0.10;0.10;;;;;;;32.14;30.13;100026.50;5047965;28;20441;-60
2021/07/11 11:31:29;;;;;;;0.00;0.00;;;;;;;32.24;30.36;100021.44;5030635;28;20045;-58
2021/07/11 11:34:11;;;;;;;;;;;;;;;32.16;30.41;100023.59;5031524;28;20617;-60
2021/07/11 11:36:47;;;;;;;0.00;0.00;;;;;;;32.18;30.45;100032.31;5047182;28;20234;-60
2021/07/11 11:39:26;;;;;;;0.00;0.00;;;;;;;32.07;29.84;100011.41;5031105;28;20134;-60
2021/07/11 11:41:52;;;;;;;0.08;0.08;;;;;;;32.18;30.38;100021.50;5030525;28;20037;-59
2021/07/11 11:44:26;;;;;;;0.00;0.00;;;;;;;32.24;30.42;100034.94;5032339;28;20034;-59
2021/07/11 11:46:55;;;;;;;0.10;0.10;;;;;;;32.17;30.57;100042.28;4982544;28;20503;-60
2021/07/11 11:49:25;;;;;;;0.10;0.10;;;;;;;32.28;30.41;100025.38;5032040;28;20127;-59
2021/07/11 11:51:58;;;;;;;0.10;0.10;;;;;;;32.31;30.21;100027.63;5014535;28;20056;-60
2021/07/11 11:54:33;;;;;;;0.10;0.10;;;;;;;32.20;30.88;100030.22;5030612;28;20136;-60
2021/07/11 11:57:00;;;;;;;0.10;0.10;;;;;;;32.18;30.84;100027.72;5028977;28;20049;-59
2021/07/11 11:59:30;;;;;;;0.05;0.05;;;;;;;32.32;31.06;100029.28;5031037;28;20544;-57
2021/07/11 12:01:58;;;;;;;0.00;0.00;;;;;;;32.46;30.90;100008.38;5028651;28;20033;-57
2021/07/11 12:04:24;;;;;;;0.00;0.00;;;;;;;32.66;30.90;100025.25;5027160;28;20064;-54
2021/07/11 12:06:51;;;;;;;0.00;0.00;;;;;;;32.72;30.77;100016.25;5027604;28;20049;-56
2021/07/11 12:09:17;;;;;;;0.00;0.00;;;;;;;32.72;30.72;100005.44;5028463;28;20037;-55
2021/07/11 12:11:43;;;;;;;0.20;0.20;;;;;;;32.79;30.78;100019.69;5027719;28;20049;-56
2021/07/11 12:14:15;;;;;;;0.35;0.35;;;;;;;32.80;30.92;100018.66;5028276;28;20041;-55
2021/07/11 12:16:57;;;;;;;0.10;0.10;;;;;;;32.83;30.47;100023.63;5010981;28;20087;-59
2021/07/11 12:19:29;;;;;;;0.00;0.00;;;;;;;32.86;30.33;100017.75;4999053;28;20099;-59
2021/07/11 12:21:56;;;;;;;0.00;0.00;;;;;;;32.80;30.65;100013.25;5029870;28;20045;-54
2021/07/11 12:24:24;;;;;;;0.40;0.40;;;;;;;32.83;30.89;100003.84;5013301;28;20499;-56
2021/07/11 12:26:53;;;;;;;1.65;0.30;;;;;;;32.81;30.57;100016.78;5030418;28;20572;-56
2021/07/11 12:29:27;;;;;;;0.20;0.20;;;;;;;32.81;30.56;100016.78;5030673;28;20446;-53
2021/07/11 12:32:01;;;;;;;0.15;0.15;;;;;;;32.86;30.65;100006.94;5028065;28;20045;-54